Time;durP1;ratioP1;P1;durP2;ratioP2;P2;SDS_P1;SDS_P2;PMS_P1;PMS_P2;Temp;Humidity;BMP_temperature;BMP_pressure;BME280_temperature;BME280_humidity;BME280_pressure;Samples;Min_cycle;Max_cycle;Signal;HPM_P1;HPM_P2
2021/03/17 00:01:29;;;;;;;6.53;2.17;;;2.90;74.60;;;;;;5055263;28;20264;-88
2021/03/17 00:03:55;;;;;;;6.93;2.00;;;2.90;74.80;;;;;;5055502;28;20607;-88
2021/03/17 00:06:20;;;;;;;7.77;2.50;;;2.80;75.00;;;;;;5037695;28;20267;-88
2021/03/17 00:08:46;;;;;;;5.93;2.30;;;2.80;75.10;;;;;;5055438;28;20524;-87
2021/03/17 00:11:15;;;;;;;9.67;2.20;;;2.80;75.20;;;;;;5036983;28;20212;-87
2021/03/17 00:13:44;;;;;;;6.53;1.97;;;2.70;75.20;;;;;;5037208;28;20210;-88
2021/03/17 00:16:14;;;;;;;4.87;2.17;;;2.70;75.20;;;;;;5037083;28;20179;-87
2021/03/17 00:18:40;;;;;;;6.33;2.23;;;2.70;75.30;;;;;;5054985;28;20284;-87
2021/03/17 00:21:12;;;;;;;8.67;1.97;;;2.60;75.50;;;;;;5054802;28;20318;-87
2021/03/17 00:23:42;;;;;;;11.47;2.13;;;2.50;75.80;;;;;;5054820;28;20187;-87
2021/03/17 00:26:08;;;;;;;8.27;1.93;;;2.40;75.90;;;;;;5036959;28;20588;-87
2021/03/17 00:28:42;;;;;;;7.40;1.73;;;2.30;76.00;;;;;;5054978;28;20215;-87
2021/03/17 00:31:14;;;;;;;7.77;2.00;;;2.30;76.60;;;;;;5036857;28;20199;-87
2021/03/17 00:33:43;;;;;;;5.43;1.70;;;2.30;76.50;;;;;;5036924;28;20207;-87
2021/03/17 00:36:09;;;;;;;17.23;2.00;;;2.30;76.40;;;;;;5036913;28;20190;-87
2021/03/17 00:38:37;;;;;;;6.87;1.90;;;2.30;76.50;;;;;;5036752;28;20180;-86
2021/03/17 00:41:07;;;;;;;5.63;1.90;;;2.30;76.70;;;;;;5036754;28;20213;-86
2021/03/17 00:43:40;;;;;;;6.50;2.10;;;2.20;76.90;;;;;;5036795;28;20641;-86
2021/03/17 00:46:11;;;;;;;6.30;1.90;;;2.20;76.90;;;;;;5054795;28;20168;-86
2021/03/17 00:48:40;;;;;;;6.80;2.10;;;2.30;76.90;;;;;;5054527;28;20184;-87
2021/03/17 00:51:10;;;;;;;8.40;2.00;;;2.20;76.80;;;;;;5036404;28;20214;-86
2021/03/17 00:53:43;;;;;;;10.87;2.07;;;2.20;76.90;;;;;;5036622;28;20316;-86
2021/03/17 00:56:14;;;;;;;14.77;4.07;;;2.10;77.30;;;;;;5036962;28;20541;-86
2021/03/17 00:58:43;;;;;;;7.47;1.93;;;2.00;77.70;;;;;;5054842;28;20176;-86
2021/03/17 01:01:10;;;;;;;8.83;1.90;;;1.90;78.10;;;;;;5054184;28;20212;-87
2021/03/17 01:03:38;;;;;;;6.83;2.10;;;1.90;78.10;;;;;;5054587;28;20179;-86
2021/03/17 01:06:07;;;;;;;6.47;2.00;;;1.90;78.20;;;;;;5036955;28;20590;-86
2021/03/17 01:08:43;;;;;;;7.77;2.17;;;2.00;78.00;;;;;;5054275;28;20175;-87
2021/03/17 01:11:12;;;;;;;5.63;1.77;;;2.00;77.90;;;;;;5036022;28;20572;-87
2021/03/17 01:13:44;;;;;;;12.93;2.67;;;1.90;77.90;;;;;;5036510;28;20197;-88
2021/03/17 01:16:16;;;;;;;6.60;1.90;;;1.90;78.20;;;;;;5036074;28;20214;-88
2021/03/17 01:18:42;;;;;;;7.97;2.00;;;1.80;78.50;;;;;;5035922;28;20172;-87
2021/03/17 01:21:17;;;;;;;4.50;1.97;;;1.90;78.20;;;;;;5054147;28;20702;-86
2021/03/17 01:23:54;;;;;;;6.50;1.80;;;1.80;78.80;;;;;;5054296;28;20157;-86
2021/03/17 01:26:24;;;;;;;9.37;2.20;;;1.60;80.00;;;;;;5036742;28;20224;-86
2021/03/17 01:28:57;;;;;;;8.00;2.20;;;1.60;80.40;;;;;;5036487;28;20180;-86
2021/03/17 01:31:34;;;;;;;7.93;2.10;;;1.60;80.80;;;;;;5054385;28;20652;-86
2021/03/17 01:34:07;;;;;;;8.20;2.20;;;1.60;81.20;;;;;;5054343;28;20170;-86
2021/03/17 01:36:40;;;;;;;9.57;2.40;;;1.50;81.90;;;;;;5054299;28;20181;-87
2021/03/17 01:39:11;;;;;;;15.70;2.20;;;1.50;81.70;;;;;;5036441;28;20198;-87
2021/03/17 01:41:43;;;;;;;10.20;2.47;;;1.50;82.10;;;;;;5036307;28;20294;-86
2021/03/17 01:44:13;;;;;;;13.67;2.30;;;1.40;82.40;;;;;;5036169;28;20168;-87
2021/03/17 01:46:39;;;;;;;5.67;2.03;;;1.40;82.90;;;;;;5036090;28;20648;-87
2021/03/17 01:49:11;;;;;;;4.93;1.87;;;1.30;83.30;;;;;;5053446;28;20172;-87
2021/03/17 01:51:44;;;;;;;10.97;3.77;;;1.30;83.90;;;;;;5035746;28;20201;-87
2021/03/17 01:54:12;;;;;;;7.00;2.20;;;1.30;83.90;;;;;;5035837;28;20175;-87
2021/03/17 01:56:44;;;;;;;10.73;2.43;;;1.30;84.40;;;;;;5036174;28;20715;-87
2021/03/17 01:59:16;;;;;;;8.37;2.50;;;1.30;84.80;;;;;;5035411;28;20179;-88
2021/03/17 02:01:43;;;;;;;11.17;2.67;;;1.30;84.90;;;;;;5035249;28;20212;-88
2021/03/17 02:04:11;;;;;;;5.93;2.50;;;1.30;85.10;;;;;;5053262;28;20655;-88
2021/03/17 02:06:44;;;;;;;17.13;3.00;;;1.30;85.80;;;;;;5035206;28;20227;-88
2021/03/17 02:09:14;;;;;;;8.63;2.60;;;1.30;85.80;;;;;;5035282;28;20183;-88
2021/03/17 02:11:54;;;;;;;8.87;3.20;;;1.30;85.70;;;;;;5053100;28;20209;-88
2021/03/17 02:14:58;;;;;;;9.93;2.67;;;1.30;85.30;;;;;;5053154;28;20214;-88
2021/03/17 02:17:27;;;;;;;9.73;2.53;;;1.40;84.90;;;;;;5035314;28;20172;-88
2021/03/17 02:20:22;;;;;;;11.00;2.50;;;1.30;84.80;;;;;;5035533;28;20176;-88
2021/03/17 02:23:05;;;;;;;14.73;2.40;;;1.50;85.10;;;;;;5034993;28;20198;-88
2021/03/17 02:25:49;;;;;;;9.17;3.40;;;1.50;84.70;;;;;;5035165;28;20542;-88
2021/03/17 02:28:30;;;;;;;11.37;2.57;;;1.50;84.80;;;;;;5052975;28;20575;-88
2021/03/17 02:31:23;;;;;;;11.87;2.73;;;1.50;84.80;;;;;;5034972;28;20176;-88
2021/03/17 02:34:06;;;;;;;7.43;2.33;;;1.60;84.90;;;;;;5053301;28;20159;-88
2021/03/17 02:36:37;;;;;;;7.83;1.90;;;1.60;84.40;;;;;;5035255;28;20165;-88
2021/03/17 02:39:14;;;;;;;8.60;2.10;;;1.60;84.30;;;;;;5039435;28;20198;-88
2021/03/17 02:41:59;;;;;;;7.53;2.47;;;1.70;84.70;;;;;;5057715;28;20207;-88
2021/03/17 02:44:30;;;;;;;12.40;2.70;;;1.70;84.40;;;;;;5039603;28;20264;-88
2021/03/17 02:47:01;;;;;;;9.10;2.37;;;1.60;84.30;;;;;;5039204;28;20182;-88
2021/03/17 02:49:36;;;;;;;13.60;3.97;;;1.60;84.50;;;;;;5056680;28;20174;-88
2021/03/17 02:52:10;;;;;;;10.70;2.83;;;1.70;84.70;;;;;;5056526;28;20272;-88
2021/03/17 02:54:43;;;;;;;10.17;2.20;;;1.70;84.70;;;;;;5056771;28;20163;-88
2021/03/17 02:57:27;;;;;;;10.40;2.33;;;1.70;84.50;;;;;;5038736;28;20682;-88
2021/03/17 02:59:58;;;;;;;12.47;2.50;;;1.70;84.20;;;;;;5038495;28;20207;-88
2021/03/17 03:02:28;;;;;;;13.77;2.40;;;1.70;84.20;;;;;;5056381;28;20657;-87
2021/03/17 03:04:58;;;;;;;9.60;2.70;;;1.80;84.40;;;;;;5038575;28;20179;-88
2021/03/17 03:07:25;;;;;;;9.77;2.40;;;1.80;84.20;;;;;;5038501;28;20251;-88
2021/03/17 03:09:57;;;;;;;15.47;2.50;;;1.80;84.20;;;;;;5038380;28;20173;-88
2021/03/17 03:12:32;;;;;;;10.07;2.30;;;1.80;84.20;;;;;;5038188;28;20294;-88
2021/03/17 03:15:03;;;;;;;9.67;2.00;;;1.80;84.40;;;;;;5056359;28;20152;-88
2021/03/17 03:17:34;;;;;;;5.13;2.10;;;1.80;84.20;;;;;;5056231;28;20162;-88
2021/03/17 03:20:08;;;;;;;9.80;2.33;;;1.80;84.10;;;;;;5038552;28;20204;-88
2021/03/17 03:22:40;;;;;;;12.37;2.30;;;1.80;83.90;;;;;;5038330;28;20188;-88
2021/03/17 03:25:15;;;;;;;7.80;1.83;;;1.80;83.90;;;;;;5038148;28;20528;-88
2021/03/17 03:27:51;;;;;;;5.13;2.00;;;1.80;83.80;;;;;;5038392;28;20715;-88
2021/03/17 03:30:22;;;;;;;8.70;2.03;;;1.90;83.70;;;;;;5055946;28;20701;-88
2021/03/17 03:32:48;;;;;;;6.90;1.93;;;1.80;83.60;;;;;;5037821;28;20251;-88
2021/03/17 03:35:21;;;;;;;7.00;1.97;;;1.80;83.60;;;;;;5056074;28;20177;-88
2021/03/17 03:37:54;;;;;;;10.93;2.40;;;1.90;83.60;;;;;;5037994;28;20531;-88
2021/03/17 03:40:23;;;;;;;9.50;2.33;;;1.90;83.70;;;;;;5055629;28;20202;-88
2021/03/17 03:42:56;;;;;;;7.87;2.00;;;1.90;83.60;;;;;;5055578;28;20189;-88
2021/03/17 03:45:25;;;;;;;8.43;2.10;;;1.90;83.50;;;;;;5055680;28;20176;-88
2021/03/17 03:48:00;;;;;;;4.57;1.87;;;1.90;83.20;;;;;;5037567;28;20175;-88
2021/03/17 03:50:37;;;;;;;6.40;2.00;;;1.90;83.00;;;;;;5037105;28;20181;-88
2021/03/17 03:53:17;;;;;;;7.83;2.17;;;1.90;83.00;;;;;;5037597;28;20196;-87
2021/03/17 03:56:08;;;;;;;9.47;2.00;;;2.00;82.90;;;;;;5037452;28;20207;-88
2021/03/17 03:58:45;;;;;;;3.87;1.80;;;2.00;82.90;;;;;;5055668;28;20159;-88
2021/03/17 04:01:26;;;;;;;10.77;2.30;;;2.00;82.80;;;;;;5055186;28;20634;-88
2021/03/17 04:04:01;;;;;;;9.17;1.90;;;1.90;83.00;;;;;;5037472;28;20197;-87
2021/03/17 04:06:33;;;;;;;7.87;2.13;;;1.90;83.10;;;;;;5037986;28;20183;-88
2021/03/17 04:09:04;;;;;;;7.10;1.83;;;1.90;82.80;;;;;;5055227;28;20598;-88
2021/03/17 04:11:44;;;;;;;4.27;2.03;;;1.90;82.80;;;;;;5037065;28;20251;-87
2021/03/17 04:14:19;;;;;;;8.20;1.87;;;1.90;83.00;;;;;;5037295;28;20186;-88
2021/03/17 04:16:54;;;;;;;6.77;2.23;;;1.90;83.80;;;;;;5037287;28;20599;-87
2021/03/17 04:19:31;;;;;;;8.43;2.20;;;1.90;83.70;;;;;;5037190;28;20270;-88
2021/03/17 04:22:02;;;;;;;6.20;1.60;;;1.90;83.70;;;;;;5036945;28;20211;-88
2021/03/17 04:24:33;;;;;;;7.27;1.80;;;1.90;83.50;;;;;;5055431;28;20153;-88
2021/03/17 04:27:06;;;;;;;8.53;1.87;;;1.90;83.40;;;;;;5037008;28;20178;-88
2021/03/17 04:29:40;;;;;;;7.27;1.97;;;1.90;83.40;;;;;;5036894;28;20173;-88
2021/03/17 04:32:17;;;;;;;7.07;1.60;;;1.90;83.30;;;;;;5036821;28;20695;-88
2021/03/17 04:34:51;;;;;;;10.13;2.03;;;1.90;83.20;;;;;;5037185;28;20173;-88
2021/03/17 04:37:27;;;;;;;4.37;1.93;;;1.80;82.90;;;;;;5036923;28;20177;-88
2021/03/17 04:39:58;;;;;;;12.03;2.10;;;1.90;82.90;;;;;;5054867;28;20181;-88
2021/03/17 04:42:31;;;;;;;7.63;2.10;;;1.80;82.90;;;;;;5036654;28;20198;-88
2021/03/17 04:45:01;;;;;;;8.20;1.73;;;1.80;83.20;;;;;;5054531;28;20244;-88
2021/03/17 04:47:37;;;;;;;11.60;2.23;;;1.80;83.10;;;;;;5036679;28;20178;-88
2021/03/17 04:50:04;;;;;;;9.63;2.23;;;1.80;83.00;;;;;;5036538;28;20202;-88
2021/03/17 04:52:42;;;;;;;9.83;2.53;;;1.60;84.10;;;;;;5036893;28;20630;-88
2021/03/17 04:55:20;;;;;;;8.97;2.13;;;1.50;84.70;;;;;;5054356;28;20180;-88
2021/03/17 04:57:56;;;;;;;11.77;2.40;;;1.50;84.90;;;;;;5036370;28;20170;-88
2021/03/17 05:00:30;;;;;;;10.67;2.07;;;1.50;85.20;;;;;;5035570;28;20684;-87
2021/03/17 05:03:08;;;;;;;3.97;1.80;;;1.50;85.10;;;;;;5036424;28;20665;-87
2021/03/17 05:05:42;;;;;;;10.30;2.13;;;1.50;85.00;;;;;;5054041;28;20171;-88
2021/03/17 05:08:20;;;;;;;4.13;1.87;;;1.50;84.80;;;;;;5054110;28;20176;-88
2021/03/17 05:10:55;;;;;;;6.97;1.80;;;1.60;84.70;;;;;;5035905;28;20188;-88
2021/03/17 05:13:29;;;;;;;7.07;2.63;;;1.60;84.40;;;;;;5036245;28;20269;-88
2021/03/17 05:15:59;;;;;;;12.30;2.20;;;1.60;84.20;;;;;;5036220;28;20711;-88
2021/03/17 05:18:33;;;;;;;13.23;1.93;;;1.70;84.00;;;;;;5036405;28;20175;-88
2021/03/17 05:21:05;;;;;;;6.70;2.00;;;1.70;83.80;;;;;;5035942;28;20299;-88
2021/03/17 05:23:42;;;;;;;9.37;2.37;;;1.70;83.70;;;;;;5036340;28;20187;-88
2021/03/17 05:26:16;;;;;;;6.47;3.00;;;1.70;83.80;;;;;;5035960;28;20544;-88
2021/03/17 05:28:43;;;;;;;13.40;3.93;;;1.70;84.20;;;;;;5036193;28;20644;-88
2021/03/17 05:31:21;;;;;;;12.37;4.17;;;1.80;84.40;;;;;;5036620;28;20202;-88
2021/03/17 05:33:51;;;;;;;11.87;4.43;;;1.80;84.50;;;;;;5054051;28;20150;-88
2021/03/17 05:36:20;;;;;;;11.60;4.53;;;1.80;84.50;;;;;;5035815;28;20177;-88
2021/03/17 05:38:54;;;;;;;10.80;4.70;;;1.80;84.60;;;;;;5035724;28;20178;-88
2021/03/17 05:41:29;;;;;;;14.47;4.73;;;1.70;85.00;;;;;;5035682;28;20240;-88
2021/03/17 05:44:01;;;;;;;12.00;4.43;;;1.70;85.10;;;;;;5053567;28;20236;-87
2021/03/17 05:46:30;;;;;;;12.53;4.17;;;1.80;84.90;;;;;;5035664;28;20243;-88
2021/03/17 05:49:01;;;;;;;9.57;4.50;;;1.70;85.00;;;;;;5053438;28;20223;-88
2021/03/17 05:51:37;;;;;;;10.43;4.77;;;1.70;85.00;;;;;;5035963;28;20202;-88
2021/03/17 05:54:08;;;;;;;8.43;4.27;;;1.70;84.90;;;;;;5053386;28;20167;-88
2021/03/17 05:56:42;;;;;;;13.40;4.73;;;1.60;84.90;;;;;;5053563;28;20204;-88
2021/03/17 05:59:14;;;;;;;8.07;4.77;;;1.60;84.80;;;;;;5035476;28;20183;-88
2021/03/17 06:01:45;;;;;;;10.47;5.07;;;1.50;84.60;;;;;;5035598;28;20243;-88
2021/03/17 06:04:21;;;;;;;20.47;6.00;;;1.50;84.60;;;;;;5035441;28;20175;-88
2021/03/17 06:06:57;;;;;;;16.53;5.40;;;1.50;84.60;;;;;;5035353;28;20177;-88
2021/03/17 06:09:27;;;;;;;14.73;5.10;;;1.50;84.70;;;;;;5035293;28;20173;-88
2021/03/17 06:12:02;;;;;;;11.77;5.80;;;1.50;84.60;;;;;;5034995;28;20241;-88
2021/03/17 06:14:32;;;;;;;22.40;5.80;;;1.50;84.90;;;;;;5053214;28;20656;-88
2021/03/17 06:17:12;;;;;;;16.90;5.83;;;1.40;85.60;;;;;;5035212;28;20173;-88
2021/03/17 06:20:00;;;;;;;15.20;5.47;;;1.30;86.20;;;;;;5036239;28;20180;-88
2021/03/17 06:22:34;;;;;;;19.93;6.23;;;1.20;86.90;;;;;;5035643;28;20282;-88
2021/03/17 06:25:08;;;;;;;17.53;5.57;;;1.10;87.40;;;;;;5036146;28;20183;-88
2021/03/17 06:27:40;;;;;;;17.63;5.80;;;1.10;87.60;;;;;;5035303;28;20216;-88
2021/03/17 06:30:13;;;;;;;15.60;5.33;;;1.20;87.40;;;;;;5035063;28;20173;-88
2021/03/17 06:32:48;;;;;;;19.83;6.80;;;1.20;87.20;;;;;;5052864;28;20688;-88
2021/03/17 06:35:23;;;;;;;18.23;6.07;;;1.30;87.40;;;;;;5035154;28;20182;-88
2021/03/17 06:37:56;;;;;;;10.87;5.17;;;1.30;87.50;;;;;;5035155;28;20175;-88
2021/03/17 06:40:36;;;;;;;14.13;5.40;;;1.30;87.40;;;;;;5052778;28;20200;-88
2021/03/17 06:43:16;;;;;;;11.63;5.13;;;1.40;87.20;;;;;;5034912;28;20237;-88
2021/03/17 06:45:52;;;;;;;9.10;5.07;;;1.40;86.70;;;;;;5035057;28;20169;-88
2021/03/17 06:48:40;;;;;;;7.23;4.23;;;1.40;86.40;;;;;;5034984;28;20172;-88
2021/03/17 06:51:21;;;;;;;13.67;4.60;;;1.50;86.00;;;;;;5035226;28;20671;-88
2021/03/17 06:54:02;;;;;;;14.50;4.10;;;1.60;85.80;;;;;;5035455;28;20181;-88
2021/03/17 06:56:37;;;;;;;13.60;4.37;;;1.60;85.70;;;;;;5034972;28;20552;-88
2021/03/17 06:59:06;;;;;;;12.10;3.90;;;1.60;85.70;;;;;;5053046;28;20200;-88
2021/03/17 07:01:44;;;;;;;10.87;3.90;;;1.60;85.60;;;;;;5034746;28;20586;-88
2021/03/17 07:04:20;;;;;;;13.10;4.93;;;1.60;86.00;;;;;;5052664;28;20256;-88
2021/03/17 07:07:02;;;;;;;11.80;4.97;;;1.60;86.30;;;;;;5035084;28;20172;-88
2021/03/17 07:09:31;;;;;;;11.50;5.03;;;1.80;86.30;;;;;;5052581;28;20168;-87
2021/03/17 07:12:15;;;;;;;15.50;4.60;;;1.70;86.30;;;;;;5034598;28;20240;-88
2021/03/17 07:14:45;;;;;;;13.97;5.10;;;1.70;86.20;;;;;;5052610;28;20177;-88
2021/03/17 07:17:30;;;;;;;14.93;5.07;;;1.80;86.60;;;;;;5034862;28;20174;-88
2021/03/17 07:20:05;;;;;;;11.97;4.97;;;1.80;86.60;;;;;;5052412;28;20174;-88
2021/03/17 07:22:33;;;;;;;10.37;4.50;;;1.80;86.60;;;;;;5034814;28;20195;-88
2021/03/17 07:25:05;;;;;;;13.40;5.07;;;1.90;86.80;;;;;;5036735;28;20248;-87
2021/03/17 07:27:38;;;;;;;18.20;4.37;;;1.90;86.70;;;;;;5038105;28;20192;-87
2021/03/17 07:30:10;;;;;;;13.33;4.33;;;2.00;86.80;;;;;;5056263;28;20573;-87
2021/03/17 07:33:03;;;;;;;14.43;4.13;;;2.00;86.80;;;;;;5037921;28;20223;-87
2021/03/17 07:35:34;;;;;;;11.80;4.23;;;2.10;86.90;;;;;;5038184;28;20543;-87
2021/03/17 07:38:10;;;;;;;14.33;4.43;;;2.20;87.00;;;;;;5055705;28;20187;-87
2021/03/17 07:40:45;;;;;;;16.60;3.80;;;2.20;86.90;;;;;;5037860;28;20197;-87
2021/03/17 07:43:17;;;;;;;13.13;4.07;;;2.30;87.00;;;;;;5037771;28;20172;-87
2021/03/17 07:45:50;;;;;;;10.53;3.97;;;2.30;86.90;;;;;;5037947;28;20173;-87
2021/03/17 07:48:24;;;;;;;16.20;3.93;;;2.40;87.10;;;;;;5037797;28;20166;-87
2021/03/17 07:50:56;;;;;;;15.57;4.23;;;2.50;87.10;;;;;;5037664;28;20595;-87
2021/03/17 07:53:31;;;;;;;14.60;4.27;;;2.50;87.20;;;;;;5037568;28;20187;-88
2021/03/17 07:56:02;;;;;;;11.13;4.07;;;2.60;87.30;;;;;;5038680;28;20177;-87
2021/03/17 07:58:37;;;;;;;11.37;4.77;;;2.60;87.10;;;;;;5037625;28;20186;-87
2021/03/17 08:01:04;;;;;;;14.13;4.43;;;2.70;87.00;;;;;;5037577;28;20685;-87
2021/03/17 08:03:35;;;;;;;11.83;4.77;;;2.70;87.10;;;;;;5055224;28;20719;-87
2021/03/17 08:06:04;;;;;;;11.73;4.07;;;2.80;87.20;;;;;;5037435;28;20553;-87
2021/03/17 08:08:40;;;;;;;15.90;4.27;;;2.90;87.00;;;;;;5037362;28;20185;-88
2021/03/17 08:11:16;;;;;;;6.83;3.93;;;3.00;87.00;;;;;;5037200;28;20677;-88
2021/03/17 08:13:53;;;;;;;8.60;4.40;;;3.10;86.80;;;;;;5058384;23;20343;-84
2021/03/17 08:16:28;;;;;;;6.23;3.53;;;3.10;86.40;;;;;;5037245;28;20533;-84
2021/03/17 08:19:02;;;;;;;13.53;4.23;;;3.20;86.70;;;;;;5037142;28;20660;-84
2021/03/17 08:21:51;;;;;;;9.83;4.20;;;3.30;86.60;;;;;;5037177;28;20204;-84
2021/03/17 08:24:36;;;;;;;11.23;4.53;;;3.30;86.80;;;;;;5035093;28;20673;-84
2021/03/17 08:27:19;;;;;;;11.03;3.97;;;3.30;86.20;;;;;;5017225;28;20173;-84
2021/03/17 08:29:53;;;;;;;9.47;3.87;;;3.40;86.30;;;;;;5035123;28;20158;-84
2021/03/17 08:32:44;;;;;;;12.77;4.10;;;3.50;86.20;;;;;;5017072;28;20203;-84
2021/03/17 08:35:13;;;;;;;13.67;4.30;;;3.50;86.30;;;;;;5034894;28;20223;-84
2021/03/17 08:38:00;;;;;;;10.13;3.60;;;3.60;85.60;;;;;;5034978;28;20218;-84
2021/03/17 08:40:36;;;;;;;10.83;4.20;;;3.60;84.90;;;;;;5016972;28;20277;-84
2021/03/17 08:43:32;;;;;;;12.70;3.63;;;3.60;85.00;;;;;;5034546;28;20188;-84
2021/03/17 08:46:24;;;;;;;8.13;3.77;;;3.70;84.90;;;;;;5016876;28;20169;-83
2021/03/17 08:49:04;;;;;;;14.23;4.23;;;3.70;85.40;;;;;;5034568;28;20644;-84
2021/03/17 08:51:50;;;;;;;11.53;4.63;;;3.80;85.30;;;;;;5016824;28;20211;-84
2021/03/17 08:57:03;;;;;;;16.07;4.03;;;3.80;85.10;;;;;;5034846;28;20187;-84
2021/03/17 09:00:04;;;;;;;16.47;4.93;;;3.90;84.80;;;;;;5034473;28;20194;-84
2021/03/17 09:02:34;;;;;;;6.87;4.43;;;3.90;84.60;;;;;;5016708;28;20229;-84
2021/03/17 09:05:05;;;;;;;9.37;4.10;;;4.00;84.60;;;;;;5016855;28;20176;-85
2021/03/17 09:07:39;;;;;;;10.63;4.47;;;4.00;84.30;;;;;;5016944;28;20180;-84
2021/03/17 09:10:10;;;;;;;12.97;4.13;;;4.00;84.10;;;;;;5016683;28;20175;-84
2021/03/17 09:12:49;;;;;;;8.00;3.87;;;4.00;84.00;;;;;;5034236;28;20581;-84
2021/03/17 09:15:24;;;;;;;11.53;4.00;;;4.00;84.30;;;;;;5034412;28;20191;-84
2021/03/17 09:17:57;;;;;;;9.30;4.27;;;4.10;84.20;;;;;;5016383;28;20547;-84
2021/03/17 09:20:34;;;;;;;13.60;5.03;;;4.20;84.20;;;;;;5016159;28;20200;-84
2021/03/17 09:23:14;;;;;;;8.17;4.27;;;4.30;84.30;;;;;;5034081;28;20192;-85
2021/03/17 09:25:54;;;;;;;9.50;4.07;;;4.30;84.30;;;;;;5016176;28;20182;-84
2021/03/17 09:28:27;;;;;;;7.27;3.83;;;4.40;83.70;;;;;;5034125;28;20164;-84
2021/03/17 09:31:02;;;;;;;14.57;5.00;;;4.50;83.20;;;;;;5016760;28;20183;-85
2021/03/17 09:33:40;;;;;;;12.60;3.90;;;4.50;83.30;;;;;;5016126;28;20569;-85
2021/03/17 09:36:18;;;;;;;12.20;4.57;;;4.60;83.70;;;;;;5034188;28;20184;-85
2021/03/17 09:38:53;;;;;;;7.53;4.30;;;4.70;83.50;;;;;;5034170;28;20180;-85
2021/03/17 09:41:28;;;;;;;10.10;4.03;;;4.60;83.20;;;;;;5017317;28;20202;-85
2021/03/17 09:44:06;;;;;;;10.47;4.20;;;4.60;83.00;;;;;;5035921;28;20640;-86
2021/03/17 09:46:42;;;;;;;9.73;4.40;;;4.60;83.40;;;;;;5017913;28;20266;-86
2021/03/17 09:49:11;;;;;;;12.33;4.50;;;4.60;83.80;;;;;;5036933;28;20164;-87
2021/03/17 09:51:47;;;;;;;10.53;4.50;;;4.50;84.10;;;;;;5036318;28;20183;-86
2021/03/17 09:54:16;;;;;;;8.90;4.00;;;4.50;84.70;;;;;;5020038;28;20624;-86
2021/03/17 09:56:46;;;;;;;6.93;3.87;;;4.40;85.10;;;;;;5021332;28;20201;-85
2021/03/17 09:59:16;;;;;;;9.97;4.30;;;4.40;85.60;;;;;;5037859;28;20256;-87
2021/03/17 10:01:53;;;;;;;9.77;4.37;;;4.50;85.90;;;;;;5037021;28;20196;-84
2021/03/17 10:04:21;;;;;;;10.07;5.07;;;4.40;85.60;;;;;;5020227;28;20667;-86
2021/03/17 10:06:49;;;;;;;13.40;4.97;;;4.60;86.70;;;;;;5037773;28;20604;-83
2021/03/17 10:09:15;;;;;;;9.03;4.90;;;4.60;85.80;;;;;;5036109;28;20173;-84
2021/03/17 10:11:46;;;;;;;16.10;6.17;;;4.70;86.10;;;;;;5017174;28;20187;-84
2021/03/17 10:14:17;;;;;;;9.67;5.50;;;5.00;86.70;;;;;;5034749;28;20180;-84
2021/03/17 10:16:48;;;;;;;13.60;5.63;;;5.20;85.60;;;;;;5016569;28;20172;-85
2021/03/17 10:19:19;;;;;;;10.00;5.00;;;5.20;85.00;;;;;;5034540;28;20200;-84
2021/03/17 10:21:54;;;;;;;9.30;4.80;;;5.30;84.60;;;;;;5033911;28;20222;-84
2021/03/17 10:24:32;;;;;;;8.27;4.57;;;5.30;84.90;;;;;;5034751;28;20164;-85
2021/03/17 10:26:58;;;;;;;14.73;5.57;;;5.40;85.00;;;;;;5035024;28;20192;-86
2021/03/17 10:29:26;;;;;;;11.73;5.40;;;5.70;85.20;;;;;;5016680;28;20177;-83
2021/03/17 10:31:56;;;;;;;11.80;4.73;;;6.00;85.10;;;;;;5017460;28;20199;-85
2021/03/17 10:34:25;;;;;;;10.43;4.57;;;6.30;83.90;;;;;;5017624;28;20192;-85
2021/03/17 10:36:53;;;;;;;10.20;4.97;;;6.40;82.40;;;;;;5034941;28;20189;-85
2021/03/17 10:39:34;;;;;;;7.23;4.60;;;6.40;81.60;;;;;;5034556;28;20601;-85
2021/03/17 10:42:15;;;;;;;12.43;5.43;;;6.30;80.60;;;;;;5034210;28;20200;-84
2021/03/17 10:44:43;;;;;;;14.27;5.20;;;6.30;81.10;;;;;;5033563;28;20204;-84
2021/03/17 10:47:11;;;;;;;11.33;6.03;;;6.60;80.90;;;;;;5017524;28;20201;-84
2021/03/17 10:49:47;;;;;;;10.87;4.40;;;6.70;79.60;;;;;;5035300;28;20170;-84
2021/03/17 10:52:14;;;;;;;12.33;5.20;;;7.00;81.40;;;;;;5035465;28;20198;-84
2021/03/17 10:54:43;;;;;;;11.17;4.83;;;7.10;79.50;;;;;;5017129;28;20245;-85
2021/03/17 10:57:24;;;;;;;8.63;5.33;;;7.20;78.10;;;;;;5034668;28;20249;-85
2021/03/17 10:59:53;;;;;;;10.60;5.50;;;7.20;78.60;;;;;;5036610;28;20640;-84
2021/03/17 11:02:28;;;;;;;12.20;4.97;;;7.40;78.00;;;;;;5021273;28;20260;-85
2021/03/17 11:05:16;;;;;;;11.20;5.43;;;7.60;78.10;;;;;;5038481;28;20173;-85
2021/03/17 11:07:58;;;;;;;12.43;6.37;;;8.00;77.40;;;;;;5020685;28;20250;-84
2021/03/17 11:10:41;;;;;;;12.10;6.37;;;8.30;76.30;;;;;;5021671;28;20199;-84
2021/03/17 11:13:16;;;;;;;11.60;5.50;;;8.50;76.30;;;;;;5021267;28;20307;-85
2021/03/17 11:15:49;;;;;;;9.47;5.50;;;8.30;72.90;;;;;;5039300;28;20175;-84
2021/03/17 11:18:22;;;;;;;9.73;5.03;;;8.60;73.80;;;;;;5038490;28;20247;-84
2021/03/17 11:20:49;;;;;;;12.33;5.77;;;8.70;73.60;;;;;;5022124;28;20223;-84
2021/03/17 11:23:36;;;;;;;9.20;5.57;;;8.00;72.10;;;;;;5021970;28;20199;-84
2021/03/17 11:26:04;;;;;;;10.93;5.87;;;7.90;73.90;;;;;;5020848;28;20172;-85
2021/03/17 11:28:40;;;;;;;12.90;5.87;;;8.00;73.70;;;;;;5021041;28;20649;-85
2021/03/17 11:31:14;;;;;;;10.93;6.13;;;8.20;75.20;;;;;;5020912;28;20172;-85
2021/03/17 11:33:41;;;;;;;12.53;5.80;;;8.00;74.70;;;;;;5020766;28;20628;-85
2021/03/17 11:36:16;;;;;;;14.47;5.97;;;8.30;74.50;;;;;;5039190;28;20173;-85
2021/03/17 11:38:43;;;;;;;9.20;5.40;;;8.10;72.80;;;;;;5039045;28;20179;-85
2021/03/17 11:41:14;;;;;;;11.33;6.03;;;7.90;74.40;;;;;;5021494;28;20212;-86
2021/03/17 11:43:41;;;;;;;12.80;6.10;;;7.90;73.30;;;;;;5020788;28;20193;-85
2021/03/17 11:46:13;;;;;;;12.23;6.10;;;8.10;74.40;;;;;;5038472;28;20668;-85
2021/03/17 11:48:43;;;;;;;11.43;6.20;;;8.30;72.90;;;;;;5019859;28;20172;-86
2021/03/17 11:51:09;;;;;;;11.43;5.53;;;8.60;74.10;;;;;;5038137;28;20169;-85
2021/03/17 11:53:41;;;;;;;11.83;5.73;;;8.60;71.60;;;;;;5037771;28;20203;-85
2021/03/17 11:56:16;;;;;;;11.97;5.90;;;8.80;72.20;;;;;;5036562;28;20660;-84
2021/03/17 11:58:53;;;;;;;10.57;5.30;;;9.10;71.00;;;;;;5018571;28;20172;-85
2021/03/17 12:01:24;;;;;;;11.67;5.73;;;9.60;72.20;;;;;;5020139;28;20279;-85
2021/03/17 12:04:00;;;;;;;11.70;5.57;;;10.00;70.20;;;;;;5037018;28;20197;-85
2021/03/17 12:06:32;;;;;;;9.43;5.80;;;9.90;65.40;;;;;;5018673;28;20602;-85
2021/03/17 12:09:07;;;;;;;10.67;5.33;;;9.00;66.60;;;;;;5017770;28;20173;-85
2021/03/17 12:11:39;;;;;;;11.27;4.37;;;9.40;68.90;;;;;;5035339;28;20192;-85
2021/03/17 12:14:12;;;;;;;11.63;5.30;;;9.10;64.70;;;;;;5035600;28;20295;-85
2021/03/17 12:16:43;;;;;;;9.13;5.53;;;8.80;67.40;;;;;;5017796;28;20173;-84
2021/03/17 12:19:18;;;;;;;10.40;6.03;;;8.70;66.30;;;;;;5017783;28;20208;-84
2021/03/17 12:21:54;;;;;;;12.93;6.73;;;8.70;69.40;;;;;;5035477;28;20563;-85
2021/03/17 12:24:26;;;;;;;12.33;6.37;;;9.10;66.10;;;;;;5017411;28;20176;-85
2021/03/17 12:27:02;;;;;;;7.73;4.53;;;9.30;68.50;;;;;;5035435;28;20164;-85
2021/03/17 12:29:34;;;;;;;10.20;4.80;;;9.50;64.80;;;;;;5017513;28;20174;-85
2021/03/17 12:32:04;;;;;;;10.60;4.83;;;8.80;62.30;;;;;;5017525;28;20176;-85
2021/03/17 12:34:41;;;;;;;11.57;5.10;;;8.70;64.00;;;;;;5036071;28;20158;-85
2021/03/17 12:37:15;;;;;;;10.07;4.83;;;8.80;64.20;;;;;;5017471;28;20268;-85
2021/03/17 12:39:42;;;;;;;9.97;5.00;;;8.70;64.80;;;;;;5017359;28;20181;-85
2021/03/17 12:42:12;;;;;;;8.63;4.93;;;9.50;65.60;;;;;;5017221;28;20239;-85
2021/03/17 12:44:45;;;;;;;11.23;4.80;;;10.30;64.20;;;;;;5034858;28;20177;-85
2021/03/17 12:47:15;;;;;;;9.17;5.40;;;10.30;60.20;;;;;;5017260;28;20165;-85
2021/03/17 12:49:48;;;;;;;8.63;4.40;;;10.40;64.10;;;;;;5035286;28;20230;-85
2021/03/17 12:52:23;;;;;;;11.87;5.50;;;10.90;61.60;;;;;;5035924;28;20193;-84
2021/03/17 12:54:54;;;;;;;10.00;5.50;;;10.80;62.50;;;;;;5035730;28;20162;-86
2021/03/17 12:57:24;;;;;;;7.77;5.20;;;9.90;59.10;;;;;;5019731;28;20717;-85
2021/03/17 12:59:56;;;;;;;10.33;4.67;;;9.80;59.70;;;;;;5017629;28;20173;-85
2021/03/17 13:02:23;;;;;;;6.40;3.57;;;9.10;62.10;;;;;;5016696;28;20208;-85
2021/03/17 13:04:54;;;;;;;5.47;3.33;;;8.80;58.50;;;;;;5034415;28;20200;-85
2021/03/17 13:07:21;;;;;;;6.23;3.57;;;8.70;59.10;;;;;;5034125;28;20251;-85
2021/03/17 13:09:49;;;;;;;5.90;3.63;;;8.60;57.60;;;;;;5034991;28;20169;-87
2021/03/17 13:12:22;;;;;;;8.77;4.07;;;8.60;57.80;;;;;;5035483;28;20204;-83
2021/03/17 13:14:54;;;;;;;5.37;3.20;;;8.70;57.90;;;;;;5017169;28;20169;-87
2021/03/17 13:17:24;;;;;;;9.57;4.60;;;8.70;59.70;;;;;;5035029;28;20177;-85
2021/03/17 13:20:00;;;;;;;9.57;4.97;;;9.10;61.20;;;;;;5034516;28;20196;-86
2021/03/17 13:22:28;;;;;;;7.23;4.43;;;9.10;60.90;;;;;;5033638;28;20704;-84
2021/03/17 13:25:01;;;;;;;6.77;4.20;;;9.20;60.20;;;;;;5016145;28;20179;-84
2021/03/17 13:27:34;;;;;;;7.27;4.17;;;9.20;58.30;;;;;;5034072;28;20165;-85